createdAt,value
2022-09-26T00:00:16.910Z,6.46
2022-09-26T00:02:43.638Z,6.37
2022-09-26T00:05:10.282Z,6.44
2022-09-26T00:07:37.260Z,6.14
2022-09-26T00:10:04.827Z,6.17
2022-09-26T00:12:31.438Z,6.50
2022-09-26T00:14:58.217Z,6.54
2022-09-26T00:17:26.109Z,6.55
2022-09-26T00:19:52.602Z,6.44
2022-09-26T00:22:19.208Z,6.57
2022-09-26T00:24:45.701Z,6.61
2022-09-26T00:27:12.249Z,6.55
2022-09-26T00:29:38.813Z,6.66
2022-09-26T00:32:05.443Z,6.67
2022-09-26T00:34:33.315Z,6.70
2022-09-26T00:37:00.120Z,6.74
2022-09-26T00:39:26.643Z,6.78
2022-09-26T00:41:53.263Z,6.71
2022-09-26T00:44:37.684Z,6.70
2022-09-26T00:47:07.275Z,6.68
2022-09-26T00:49:37.927Z,6.83
2022-09-26T00:52:09.047Z,6.75
2022-09-26T00:54:39.488Z,6.82
2022-09-26T00:57:09.995Z,6.80
2022-09-26T00:59:39.455Z,6.78
2022-09-26T01:02:06.251Z,6.67
2022-09-26T01:04:37.505Z,6.57
2022-09-26T01:07:08.317Z,6.47
2022-09-26T01:09:35.578Z,6.79
2022-09-26T01:12:04.598Z,6.82
2022-09-26T01:14:33.046Z,6.81
2022-09-26T01:16:59.843Z,6.84
2022-09-26T01:19:38.002Z,6.76
2022-09-26T01:22:44.460Z,6.80
2022-09-26T01:25:22.040Z,6.79
2022-09-26T01:28:04.312Z,6.77
2022-09-26T01:30:39.141Z,6.72
2022-09-26T01:33:37.305Z,6.76
2022-09-26T01:36:42.851Z,6.70
2022-09-26T01:39:23.295Z,6.70
2022-09-26T01:41:57.886Z,6.53
2022-09-26T01:44:32.415Z,6.48
2022-09-26T01:47:09.439Z,6.74
2022-09-26T01:49:42.883Z,6.46
2022-09-26T01:52:15.877Z,6.48
2022-09-26T01:54:48.922Z,6.63
2022-09-26T01:57:28.062Z,6.71
2022-09-26T01:59:59.240Z,6.84
2022-09-26T02:02:31.244Z,6.87
2022-09-26T02:05:02.797Z,6.94
2022-09-26T02:07:36.362Z,6.99
2022-09-26T02:10:09.296Z,7.00
2022-09-26T02:12:39.251Z,7.04
2022-09-26T02:15:09.273Z,7.05
2022-09-26T02:17:41.384Z,7.11
2022-09-26T02:20:11.803Z,7.11
2022-09-26T02:22:39.004Z,7.13
2022-09-26T02:25:09.005Z,7.13
2022-09-26T02:27:35.616Z,7.12
2022-09-26T02:30:04.167Z,7.13
2022-09-26T02:32:32.722Z,7.07
2022-09-26T02:35:02.119Z,7.04
2022-09-26T02:37:31.470Z,7.14
2022-09-26T02:39:58.099Z,7.10
2022-09-26T02:42:31.774Z,6.73
2022-09-26T02:45:12.003Z,6.99
2022-09-26T02:47:53.586Z,7.18
2022-09-26T02:50:34.830Z,7.15
2022-09-26T02:53:14.208Z,7.34
2022-09-26T02:56:00.284Z,7.36
2022-09-26T02:58:33.754Z,7.35
2022-09-26T03:01:09.070Z,7.19
2022-09-26T03:03:41.379Z,7.37
2022-09-26T03:06:15.225Z,7.45
2022-09-26T03:08:47.090Z,7.46
2022-09-26T03:11:18.720Z,7.37
2022-09-26T03:13:47.388Z,7.28
2022-09-26T03:16:14.653Z,7.49
2022-09-26T03:18:48.673Z,7.50
2022-09-26T03:21:17.307Z,7.53
2022-09-26T03:23:44.006Z,7.41
2022-09-26T03:26:15.874Z,7.58
2022-09-26T03:28:52.024Z,7.66
2022-09-26T03:31:18.813Z,7.47
2022-09-26T03:34:05.646Z,7.33
2022-09-26T03:36:34.550Z,7.59
2022-09-26T03:39:03.528Z,7.75
2022-09-26T03:41:56.722Z,7.75
2022-09-26T03:44:26.035Z,7.57
2022-09-26T03:47:13.283Z,7.73
2022-09-26T03:49:42.058Z,7.80
2022-09-26T03:54:51.428Z,7.83
2022-09-26T03:57:19.156Z,7.85
2022-09-26T03:59:50.823Z,7.85
2022-09-26T04:02:18.673Z,7.79
2022-09-26T04:04:49.872Z,7.77
2022-09-26T04:07:16.661Z,7.66
2022-09-26T04:09:43.365Z,7.45
2022-09-26T04:12:12.414Z,7.80
2022-09-26T04:14:42.508Z,7.78
2022-09-26T04:17:09.467Z,7.73
2022-09-26T04:19:39.556Z,7.78
2022-09-26T04:22:07.058Z,7.75
2022-09-26T04:24:34.815Z,7.43
2022-09-26T04:27:01.604Z,7.59
2022-09-26T04:29:30.704Z,7.69
2022-09-26T04:32:05.985Z,7.63
2022-09-26T04:34:46.987Z,7.43
2022-09-26T04:37:13.768Z,7.60
2022-09-26T04:39:41.544Z,6.87
2022-09-26T04:42:08.126Z,7.44
2022-09-26T04:44:36.720Z,7.53
2022-09-26T04:47:03.355Z,7.44
2022-09-26T04:49:49.857Z,7.46
2022-09-26T04:52:18.051Z,7.38
2022-09-26T04:54:44.627Z,7.41
2022-09-26T04:57:13.855Z,7.38
2022-09-26T04:59:45.403Z,7.39
2022-09-26T05:02:12.651Z,7.39
2022-09-26T05:04:41.173Z,7.38
2022-09-26T05:07:07.695Z,6.99
2022-09-26T05:09:36.239Z,7.32
2022-09-26T05:12:23.262Z,7.24
2022-09-26T05:14:52.410Z,7.24
2022-09-26T05:17:19.053Z,7.28
2022-09-26T05:19:46.417Z,7.33
2022-09-26T05:22:28.825Z,7.27
2022-09-26T05:24:55.419Z,7.24
2022-09-26T05:27:22.520Z,7.35
2022-09-26T05:29:49.653Z,7.39
2022-09-26T05:32:18.685Z,7.37
2022-09-26T05:34:45.744Z,7.23
2022-09-26T05:37:15.253Z,7.30
2022-09-26T05:39:42.769Z,7.28
2022-09-26T05:42:11.900Z,6.98
2022-09-26T05:44:39.117Z,6.99
2022-09-26T05:47:05.733Z,7.35
2022-09-26T05:49:33.803Z,7.22
2022-09-26T05:52:00.861Z,7.13
2022-09-26T05:54:28.513Z,7.34
2022-09-26T05:56:56.173Z,7.36
2022-09-26T05:59:41.079Z,7.26
2022-09-26T06:02:26.231Z,7.40
2022-09-26T06:05:12.734Z,7.30
2022-09-26T06:08:08.958Z,7.20
2022-09-26T06:10:42.997Z,7.55
2022-09-26T06:13:09.990Z,7.59
2022-09-26T06:15:47.252Z,7.65
2022-09-26T06:18:14.125Z,7.69
2022-09-26T06:20:42.064Z,7.75
2022-09-26T06:23:08.665Z,7.81
2022-09-26T06:25:37.669Z,7.87
2022-09-26T06:28:04.308Z,8.03
2022-09-26T06:30:31.056Z,8.05
2022-09-26T06:33:09.076Z,8.12
2022-09-26T06:36:02.037Z,8.23
2022-09-26T06:38:36.902Z,8.25
2022-09-26T06:41:05.842Z,8.43
2022-09-26T06:43:32.629Z,8.51
2022-09-26T06:46:17.840Z,8.58
2022-09-26T06:48:52.461Z,8.50
2022-09-26T06:51:23.364Z,8.73
2022-09-26T06:53:50.003Z,8.79
2022-09-26T06:56:20.489Z,8.89
2022-09-26T06:58:47.174Z,8.98
2022-09-26T07:01:15.426Z,9.11
2022-09-26T07:04:01.220Z,9.19
2022-09-26T07:06:35.178Z,9.28
2022-09-26T07:09:05.491Z,9.40
2022-09-26T07:12:14.086Z,9.39
2022-09-26T07:14:40.933Z,9.58
2022-09-26T07:17:18.016Z,9.69
2022-09-26T07:20:06.216Z,9.92
2022-09-26T07:22:52.787Z,10.05
2022-09-26T07:25:19.531Z,10.16
2022-09-26T07:27:49.423Z,10.30
2022-09-26T07:30:16.217Z,10.20
2022-09-26T07:32:57.819Z,10.52
2022-09-26T07:35:44.304Z,10.76
2022-09-26T07:38:12.295Z,10.97
2022-09-26T07:40:39.650Z,11.16
2022-09-26T07:43:19.706Z,11.42
2022-09-26T07:45:50.725Z,11.60
2022-09-26T07:48:17.246Z,11.71
2022-09-26T07:51:09.027Z,11.90
2022-09-26T07:53:44.700Z,12.01
2022-09-26T07:56:34.283Z,12.19
2022-09-26T07:59:21.316Z,11.97
2022-09-26T08:02:20.217Z,12.38
2022-09-26T08:04:47.250Z,12.49
2022-09-26T08:07:14.130Z,12.49
2022-09-26T08:09:54.025Z,12.60
2022-09-26T08:12:40.745Z,12.65
2022-09-26T08:15:20.065Z,12.76
2022-09-26T08:17:46.743Z,12.90
2022-09-26T08:20:13.234Z,13.00
2022-09-26T08:22:39.834Z,12.86
2022-09-26T08:25:09.389Z,12.88
2022-09-26T08:27:54.536Z,12.89
2022-09-26T08:30:21.143Z,13.05
2022-09-26T08:32:52.990Z,13.07
2022-09-26T08:35:19.734Z,13.11
2022-09-26T08:37:46.435Z,13.07
2022-09-26T08:41:00.383Z,13.10
2022-09-26T08:43:57.807Z,13.07
2022-09-26T08:47:04.823Z,13.10
2022-09-26T08:50:03.486Z,13.02
2022-09-26T08:52:37.495Z,13.02
2022-09-26T08:55:12.563Z,13.13
2022-09-26T08:57:44.375Z,13.11
2022-09-26T09:00:18.662Z,12.88
2022-09-26T09:02:58.510Z,12.84
2022-09-26T09:05:29.177Z,12.60
2022-09-26T09:07:58.635Z,12.93
2022-09-26T09:10:37.927Z,13.05
2022-09-26T09:13:31.384Z,12.91
2022-09-26T09:16:47.150Z,12.93
2022-09-26T09:19:45.243Z,12.98
2022-09-26T09:22:49.274Z,13.00
2022-09-26T09:25:23.643Z,12.93
2022-09-26T09:28:08.632Z,12.75
2022-09-26T09:30:42.970Z,12.79
2022-09-26T09:33:32.069Z,12.71
2022-09-26T09:36:40.476Z,12.82
2022-09-26T09:39:27.643Z,12.91
2022-09-26T09:42:05.309Z,12.87
2022-09-26T09:44:46.378Z,12.76
2022-09-26T09:47:17.273Z,12.63
2022-09-26T09:49:46.501Z,12.81
2022-09-26T09:52:37.024Z,12.78
2022-09-26T09:55:16.684Z,12.44
2022-09-26T09:57:56.467Z,12.55
2022-09-26T10:00:25.029Z,12.55
2022-09-26T10:03:17.590Z,12.37
2022-09-26T10:05:46.875Z,12.45
2022-09-26T10:08:29.113Z,12.50
2022-09-26T10:11:27.078Z,12.34
2022-09-26T10:14:01.319Z,12.37
2022-09-26T10:17:13.398Z,12.42
2022-09-26T10:20:06.183Z,12.33
2022-09-26T10:22:43.429Z,12.27
2022-09-26T10:25:18.514Z,12.43
2022-09-26T10:27:50.668Z,12.42
2022-09-26T10:30:24.270Z,12.46
2022-09-26T10:32:56.403Z,12.50
2022-09-26T10:35:45.432Z,12.50
2022-09-26T10:38:22.716Z,12.29
2022-09-26T10:41:22.688Z,12.51
2022-09-26T10:43:52.781Z,12.28
2022-09-26T10:46:42.628Z,12.45
2022-09-26T10:49:34.039Z,12.44
2022-09-26T10:52:39.840Z,12.42
2022-09-26T10:55:11.529Z,12.54
2022-09-26T10:57:43.651Z,12.39
2022-09-26T11:00:18.650Z,12.35
2022-09-26T11:02:46.758Z,12.51
2022-09-26T11:05:16.683Z,12.56
2022-09-26T11:07:46.758Z,12.67
2022-09-26T11:10:37.422Z,12.47
2022-09-26T11:13:44.394Z,12.43
2022-09-26T11:16:13.278Z,12.67
2022-09-26T11:18:49.257Z,12.70
2022-09-26T11:21:29.200Z,12.71
2022-09-26T11:24:05.916Z,12.72
2022-09-26T11:26:38.662Z,12.61
2022-09-26T11:29:14.095Z,12.59
2022-09-26T11:31:55.068Z,12.45
2022-09-26T11:34:29.302Z,12.57
2022-09-26T11:37:27.788Z,12.66
2022-09-26T11:40:13.052Z,12.74
2022-09-26T11:42:56.115Z,12.81
2022-09-26T11:45:37.715Z,12.96
2022-09-26T11:48:54.175Z,12.97
2022-09-26T11:52:09.113Z,13.01
2022-09-26T11:54:59.332Z,13.04
2022-09-26T11:57:37.371Z,13.15
2022-09-26T12:00:10.497Z,13.28
2022-09-26T12:02:52.956Z,13.27
2022-09-26T12:05:36.887Z,13.54
2022-09-26T12:08:17.600Z,13.57
2022-09-26T12:10:54.506Z,13.55
2022-09-26T12:13:30.292Z,13.68
2022-09-26T12:16:06.882Z,13.73
2022-09-26T12:18:38.291Z,13.76
2022-09-26T12:21:17.739Z,13.88
2022-09-26T12:23:51.781Z,14.01
2022-09-26T12:26:27.488Z,14.02
2022-09-26T12:29:05.346Z,14.08
2022-09-26T12:31:45.973Z,14.11
2022-09-26T12:34:29.831Z,14.17
2022-09-26T12:37:07.056Z,14.22
2022-09-26T12:39:57.260Z,14.24
2022-09-26T12:42:45.110Z,14.28
2022-09-26T12:45:41.648Z,14.52
2022-09-26T12:48:24.851Z,14.62
2022-09-26T12:51:07.060Z,14.64
2022-09-26T12:53:53.808Z,14.85
2022-09-26T12:56:29.281Z,15.05
2022-09-26T12:59:12.048Z,14.87
2022-09-26T13:02:04.411Z,14.51
2022-09-26T13:05:03.719Z,14.96
2022-09-26T13:07:48.868Z,14.92
2022-09-26T13:10:32.643Z,14.86
2022-09-26T13:13:27.934Z,14.62
2022-09-26T13:16:07.601Z,14.74
2022-09-26T13:18:38.777Z,14.62
2022-09-26T13:21:09.105Z,14.42
2022-09-26T13:23:41.694Z,14.57
2022-09-26T13:26:14.078Z,14.39
2022-09-26T13:29:06.344Z,14.35
2022-09-26T13:31:40.894Z,14.18
2022-09-26T13:34:15.209Z,14.33
2022-09-26T13:36:43.300Z,14.23
2022-09-26T13:39:17.336Z,13.82
2022-09-26T13:41:54.183Z,13.95
2022-09-26T13:44:29.896Z,13.84
2022-09-26T13:47:21.450Z,13.83
2022-09-26T13:49:59.186Z,13.62
2022-09-26T13:52:43.403Z,13.49
2022-09-26T13:55:14.964Z,13.42
2022-09-26T13:57:47.735Z,13.50
2022-09-26T14:00:42.582Z,13.46
2022-09-26T14:03:39.223Z,13.42
2022-09-26T14:06:28.386Z,13.37
2022-09-26T14:09:13.624Z,13.20
2022-09-26T14:11:50.689Z,13.29
2022-09-26T14:14:42.562Z,13.45
2022-09-26T14:17:47.882Z,13.44
2022-09-26T14:20:24.267Z,12.57
2022-09-26T14:22:54.256Z,13.27
2022-09-26T14:25:55.609Z,13.27
2022-09-26T14:28:32.113Z,13.14
2022-09-26T14:31:21.152Z,13.13
2022-09-26T14:33:49.462Z,13.06
2022-09-26T14:36:34.058Z,12.84
2022-09-26T14:39:02.429Z,13.05
2022-09-26T14:41:32.592Z,13.00
2022-09-26T14:44:02.412Z,12.92
2022-09-26T14:46:31.724Z,12.92
2022-09-26T14:49:01.136Z,12.85
2022-09-26T14:51:32.522Z,13.00
2022-09-26T14:54:02.616Z,13.04
2022-09-26T14:56:35.775Z,13.00
2022-09-26T14:59:29.382Z,12.96
2022-09-26T15:02:19.590Z,12.90
2022-09-26T15:04:50.329Z,12.78
2022-09-26T15:07:21.654Z,12.69
2022-09-26T15:09:54.689Z,12.78
2022-09-26T15:12:26.152Z,12.76
2022-09-26T15:15:04.751Z,12.63
2022-09-26T15:17:36.882Z,12.70
2022-09-26T15:20:06.718Z,12.75
2022-09-26T15:22:35.394Z,12.57
2022-09-26T15:25:08.786Z,12.59
2022-09-26T15:27:35.538Z,12.65
2022-09-26T15:30:05.591Z,12.60
2022-09-26T15:32:33.852Z,12.69
2022-09-26T15:35:03.160Z,12.64
2022-09-26T15:37:32.663Z,12.68
2022-09-26T15:40:11.605Z,12.70
2022-09-26T15:42:38.300Z,12.61
2022-09-26T15:45:17.407Z,12.59
2022-09-26T15:47:44.199Z,12.56
2022-09-26T15:50:12.844Z,12.56
2022-09-26T15:52:43.218Z,12.53
2022-09-26T15:55:17.287Z,12.60
2022-09-26T15:57:44.595Z,12.69
2022-09-26T16:00:14.002Z,12.63
2022-09-26T16:02:41.301Z,12.53
2022-09-26T16:05:12.852Z,12.45
2022-09-26T16:07:46.457Z,12.45
2022-09-26T16:10:28.029Z,12.29
2022-09-26T16:12:55.378Z,12.40
2022-09-26T16:15:26.350Z,12.37
2022-09-26T16:17:54.870Z,12.23
2022-09-26T16:20:27.141Z,12.23
2022-09-26T16:22:54.298Z,12.30
2022-09-26T16:25:29.314Z,12.15
2022-09-26T16:28:15.370Z,12.03
2022-09-26T16:30:44.361Z,12.10
2022-09-26T16:33:28.091Z,12.11
2022-09-26T16:35:55.073Z,12.07
2022-09-26T16:38:26.114Z,11.90
2022-09-26T16:40:56.649Z,12.01
2022-09-26T16:43:26.289Z,11.90
2022-09-26T16:45:59.157Z,11.96
2022-09-26T16:48:38.532Z,12.01
2022-09-26T16:51:12.976Z,12.02
2022-09-26T16:53:42.546Z,11.99
2022-09-26T16:56:12.932Z,11.98
2022-09-26T16:58:48.969Z,12.00
2022-09-26T17:01:16.374Z,12.01
2022-09-26T17:03:43.138Z,11.78
2022-09-26T17:06:10.079Z,11.93
2022-09-26T17:08:36.630Z,11.88
2022-09-26T17:11:04.415Z,11.75
2022-09-26T17:13:35.215Z,11.05
2022-09-26T17:16:02.343Z,11.69
2022-09-26T17:18:30.109Z,11.93
2022-09-26T17:20:57.068Z,11.88
2022-09-26T17:23:40.938Z,11.54
2022-09-26T17:26:10.987Z,11.82
2022-09-26T17:28:41.433Z,11.86
2022-09-26T17:31:12.968Z,11.52
2022-09-26T17:33:40.887Z,11.79
2022-09-26T17:36:18.108Z,11.79
2022-09-26T17:38:44.711Z,11.63
2022-09-26T17:41:11.258Z,11.72
2022-09-26T17:43:39.380Z,11.81
2022-09-26T17:46:06.386Z,11.79
2022-09-26T17:48:33.180Z,11.78
2022-09-26T17:51:01.883Z,11.74
2022-09-26T17:53:36.377Z,11.58
2022-09-26T17:56:04.716Z,11.72
2022-09-26T17:58:31.606Z,11.73
2022-09-26T18:00:59.760Z,11.47
2022-09-26T18:03:28.686Z,11.51
2022-09-26T18:05:55.956Z,11.55
2022-09-26T18:08:25.781Z,11.53
2022-09-26T18:10:54.266Z,11.58
2022-09-26T18:13:23.856Z,11.59
2022-09-26T18:15:50.957Z,11.60
2022-09-26T18:18:20.737Z,11.34
2022-09-26T18:20:47.532Z,11.53
2022-09-26T18:23:17.828Z,11.55
2022-09-26T18:25:45.157Z,11.40
2022-09-26T18:28:14.807Z,11.34
2022-09-26T18:30:44.264Z,11.36
2022-09-26T18:33:13.305Z,11.49
2022-09-26T18:35:41.436Z,11.49
2022-09-26T18:38:08.207Z,11.31
2022-09-26T18:40:39.975Z,11.46
2022-09-26T18:43:06.913Z,11.40
2022-09-26T18:45:34.699Z,11.43
2022-09-26T18:48:04.282Z,11.40
2022-09-26T18:50:33.653Z,11.44
2022-09-26T18:53:02.059Z,11.43
2022-09-26T18:55:28.740Z,11.44
2022-09-26T18:57:55.263Z,11.36
2022-09-26T19:00:21.809Z,11.42
2022-09-26T19:02:48.871Z,11.41
2022-09-26T19:05:16.249Z,11.33
2022-09-26T19:07:43.262Z,11.38
2022-09-26T19:10:15.648Z,11.36
2022-09-26T19:12:42.270Z,11.39
2022-09-26T19:15:13.097Z,11.37
2022-09-26T19:17:39.747Z,11.34
2022-09-26T19:20:06.548Z,11.42
2022-09-26T19:22:33.679Z,11.43
2022-09-26T19:25:01.525Z,11.22
2022-09-26T19:27:33.988Z,11.43
2022-09-26T19:30:02.602Z,11.42
2022-09-26T19:32:32.607Z,11.41
2022-09-26T19:35:01.634Z,11.42
2022-09-26T19:37:28.406Z,11.27
2022-09-26T19:39:55.071Z,11.42
2022-09-26T19:42:21.885Z,11.42
2022-09-26T19:44:50.245Z,11.32
2022-09-26T19:47:18.170Z,11.41
2022-09-26T19:49:47.185Z,11.43
2022-09-26T19:52:15.652Z,11.35
2022-09-26T19:54:42.607Z,11.41
2022-09-26T19:57:14.642Z,11.24
2022-09-26T19:59:42.635Z,11.42
2022-09-26T20:02:14.757Z,11.25
2022-09-26T20:04:41.469Z,11.26
2022-09-26T20:07:11.484Z,11.29
2022-09-26T20:09:38.139Z,11.12
2022-09-26T20:12:04.968Z,11.27
2022-09-26T20:14:31.708Z,11.07
2022-09-26T20:17:01.444Z,11.15
2022-09-26T20:19:33.438Z,11.25
2022-09-26T20:22:01.719Z,11.16
2022-09-26T20:24:30.760Z,11.06
2022-09-26T20:26:59.376Z,11.21
2022-09-26T20:29:25.985Z,11.15
2022-09-26T20:31:53.148Z,11.14
2022-09-26T20:34:19.691Z,11.17
2022-09-26T20:36:49.452Z,11.14
2022-09-26T20:39:21.215Z,11.24
2022-09-26T20:41:47.681Z,11.25
2022-09-26T20:44:18.462Z,11.30
2022-09-26T20:46:48.938Z,11.15
2022-09-26T20:49:19.611Z,11.28
2022-09-26T20:51:48.385Z,10.98
2022-09-26T20:54:24.017Z,11.22
2022-09-26T20:56:50.670Z,11.27
2022-09-26T20:59:17.156Z,11.31
2022-09-26T21:01:44.069Z,11.32
2022-09-26T21:04:14.084Z,11.28
2022-09-26T21:06:41.682Z,11.35
2022-09-26T21:09:14.886Z,11.34
2022-09-26T21:11:41.701Z,11.38
2022-09-26T21:14:08.655Z,11.35
2022-09-26T21:16:38.725Z,11.28
2022-09-26T21:19:06.586Z,11.31
2022-09-26T21:21:33.122Z,11.22
2022-09-26T21:24:22.738Z,11.30
2022-09-26T21:26:51.518Z,11.32
2022-09-26T21:29:18.240Z,11.34
2022-09-26T21:31:47.543Z,11.35
2022-09-26T21:34:20.258Z,11.26
2022-09-26T21:36:47.220Z,11.34
2022-09-26T21:39:18.024Z,11.33
2022-09-26T21:41:46.099Z,11.38
2022-09-26T21:44:20.905Z,11.28
2022-09-26T21:46:47.633Z,11.40
2022-09-26T21:49:14.144Z,11.39
2022-09-26T21:51:41.585Z,11.41
2022-09-26T21:54:13.613Z,11.38
2022-09-26T21:56:48.070Z,11.44
2022-09-26T21:59:14.986Z,11.24
2022-09-26T22:01:41.615Z,11.43
2022-09-26T22:04:08.256Z,11.43
2022-09-26T22:06:34.834Z,11.35
2022-09-26T22:09:01.587Z,11.18
2022-09-26T22:11:28.162Z,11.43
2022-09-26T22:13:56.209Z,11.29
2022-09-26T22:16:22.788Z,11.43
2022-09-26T22:18:49.551Z,11.45
2022-09-26T22:21:16.240Z,11.44
2022-09-26T22:23:42.956Z,11.25
2022-09-26T22:26:09.696Z,11.46
2022-09-26T22:28:36.368Z,11.36
2022-09-26T22:31:05.151Z,11.43
2022-09-26T22:33:32.221Z,11.43
2022-09-26T22:35:58.815Z,11.42
2022-09-26T22:38:26.003Z,11.40
2022-09-26T22:40:55.816Z,11.06
2022-09-26T22:43:22.693Z,11.40
2022-09-26T22:45:49.267Z,11.41
2022-09-26T22:48:17.608Z,11.10
2022-09-26T22:50:44.200Z,11.39
2022-09-26T22:53:11.403Z,11.24
2022-09-26T22:55:38.238Z,11.41
2022-09-26T22:58:04.854Z,11.37
2022-09-26T23:00:31.423Z,11.17
2022-09-26T23:02:58.181Z,11.36
2022-09-26T23:05:26.198Z,11.29
2022-09-26T23:07:53.023Z,11.01
2022-09-26T23:10:19.563Z,11.19
2022-09-26T23:12:46.215Z,11.29
2022-09-26T23:15:12.818Z,11.18
2022-09-26T23:17:39.427Z,11.13
2022-09-26T23:20:07.056Z,11.17
2022-09-26T23:22:35.072Z,10.99
2022-09-26T23:25:01.589Z,11.13
2022-09-26T23:27:28.175Z,11.01
2022-09-26T23:29:54.688Z,11.09
2022-09-26T23:32:21.355Z,11.05
2022-09-26T23:34:47.887Z,11.12
2022-09-26T23:37:14.493Z,11.14
2022-09-26T23:39:42.448Z,11.13
2022-09-26T23:42:09.051Z,11.16
2022-09-26T23:44:35.615Z,11.08
2022-09-26T23:47:02.223Z,11.06
2022-09-26T23:49:28.776Z,11.01
2022-09-26T23:51:55.378Z,11.12
2022-09-26T23:54:22.050Z,11.04
2022-09-26T23:56:50.062Z,10.89
2022-09-26T23:59:16.614Z,11.05
